createdAt,value
2022-10-16T00:04:47.676Z,6.53
2022-10-16T00:09:49.124Z,4.10
2022-10-16T00:14:50.504Z,2.58
2022-10-16T00:19:51.849Z,3.22
2022-10-16T00:24:53.236Z,4.00
2022-10-16T00:29:54.649Z,2.63
2022-10-16T00:34:56.198Z,3.47
2022-10-16T00:39:57.568Z,6.97
2022-10-16T00:44:58.915Z,5.43
2022-10-16T00:50:08.905Z,6.25
2022-10-16T00:55:10.706Z,7.68
2022-10-16T01:00:16.571Z,9.48
2022-10-16T01:05:17.957Z,15.45
2022-10-16T01:10:28.457Z,11.68
2022-10-16T01:15:45.709Z,17.65
2022-10-16T01:26:05.020Z,9.00
2022-10-16T01:31:07.152Z,10.40
2022-10-16T01:36:17.549Z,14.27
2022-10-16T01:41:25.822Z,10.88
2022-10-16T01:46:28.289Z,12.88
2022-10-16T01:51:30.838Z,12.55
2022-10-16T01:56:33.363Z,13.25
2022-10-16T02:01:38.147Z,11.43
2022-10-16T02:06:39.632Z,13.98
2022-10-16T02:11:41.024Z,11.30
2022-10-16T02:16:46.316Z,12.38
2022-10-16T02:22:01.288Z,8.82
2022-10-16T02:27:32.830Z,12.80
2022-10-16T02:32:36.831Z,9.75
2022-10-16T02:37:40.013Z,12.05
2022-10-16T02:42:41.727Z,8.70
2022-10-16T02:47:43.079Z,5.60
2022-10-16T02:52:44.426Z,7.10
2022-10-16T02:57:45.929Z,3.95
2022-10-16T03:02:48.030Z,7.80
2022-10-16T03:07:49.392Z,5.07
2022-10-16T03:12:50.878Z,3.90
2022-10-16T03:17:52.384Z,3.28
2022-10-16T03:22:53.708Z,2.83
2022-10-16T03:27:55.090Z,3.55
2022-10-16T03:32:56.495Z,2.72
2022-10-16T03:37:57.932Z,3.88
2022-10-16T03:42:59.698Z,8.55
2022-10-16T03:48:01.036Z,1.98
2022-10-16T03:53:02.380Z,6.68
2022-10-16T03:58:03.758Z,5.30
2022-10-16T04:03:05.093Z,3.47
2022-10-16T04:08:06.984Z,3.13
2022-10-16T04:13:08.495Z,5.18
2022-10-16T04:18:09.895Z,4.88
2022-10-16T04:23:11.299Z,3.35
2022-10-16T04:28:12.688Z,1.90
2022-10-16T04:33:14.080Z,2.65
2022-10-16T04:38:15.452Z,2.42
2022-10-16T04:43:16.875Z,5.07
2022-10-16T04:48:18.930Z,2.33
2022-10-16T04:53:20.503Z,4.68
2022-10-16T04:58:21.878Z,3.25
2022-10-16T05:03:23.270Z,2.92
2022-10-16T05:08:24.724Z,1.13
2022-10-16T05:13:26.186Z,3.08
2022-10-16T05:18:27.523Z,1.67
2022-10-16T05:23:28.845Z,3.92
2022-10-16T05:28:31.269Z,2.58
2022-10-16T05:33:32.712Z,4.35
2022-10-16T05:38:35.434Z,6.55
2022-10-16T05:43:36.792Z,4.78
2022-10-16T05:48:38.123Z,3.63
2022-10-16T05:53:40.527Z,3.85
2022-10-16T05:58:42.824Z,6.55
2022-10-16T06:03:44.250Z,4.55
2022-10-16T06:08:47.512Z,2.95
2022-10-16T06:13:54.417Z,4.57
2022-10-16T06:19:00.800Z,5.18
2022-10-16T06:24:02.187Z,1.13
2022-10-16T06:29:03.813Z,5.40
2022-10-16T06:34:07.140Z,3.53
2022-10-16T06:39:08.581Z,2.20
2022-10-16T06:44:09.944Z,2.65
2022-10-16T06:49:11.480Z,3.42
2022-10-16T06:54:12.819Z,3.50
2022-10-16T06:59:14.163Z,7.55
2022-10-16T07:04:15.646Z,6.13
2022-10-16T07:09:17.093Z,11.10
2022-10-16T07:14:20.861Z,10.32
2022-10-16T07:19:22.899Z,3.53
2022-10-16T07:24:24.333Z,2.60
2022-10-16T07:29:25.808Z,5.45
2022-10-16T07:34:27.697Z,2.30
2022-10-16T07:39:29.490Z,2.42
2022-10-16T07:44:30.836Z,2.00
2022-10-16T07:49:32.567Z,4.88
2022-10-16T07:54:33.993Z,4.65
2022-10-16T07:59:35.364Z,4.40
2022-10-16T08:04:37.083Z,4.55
2022-10-16T08:09:38.437Z,2.50
2022-10-16T08:14:41.368Z,2.55
2022-10-16T08:19:48.516Z,4.47
2022-10-16T08:24:49.879Z,4.13
2022-10-16T08:29:51.238Z,3.33
2022-10-16T08:34:52.638Z,5.10
2022-10-16T08:39:53.974Z,6.32
2022-10-16T08:45:15.075Z,4.28
2022-10-16T08:50:28.960Z,6.82
2022-10-16T08:55:37.940Z,6.80
2022-10-16T09:00:40.016Z,8.57
2022-10-16T09:05:58.898Z,9.35
2022-10-16T09:11:14.433Z,8.50
2022-10-16T09:16:37.675Z,7.47
2022-10-16T09:21:43.129Z,7.10
2022-10-16T09:26:45.052Z,3.97
2022-10-16T09:31:47.164Z,6.13
2022-10-16T09:36:48.943Z,5.95
2022-10-16T09:41:51.076Z,4.50
2022-10-16T09:47:03.627Z,7.20
2022-10-16T09:52:14.816Z,10.00
2022-10-16T09:57:16.376Z,7.07
2022-10-16T10:02:21.943Z,8.68
2022-10-16T10:07:35.279Z,3.95
2022-10-16T10:12:45.970Z,2.75
2022-10-16T10:17:52.996Z,3.70
2022-10-16T10:28:36.104Z,3.45
2022-10-16T10:33:52.463Z,4.00
2022-10-16T10:38:59.264Z,1.90
2022-10-16T10:44:16.044Z,3.15
2022-10-16T10:49:37.430Z,2.97
2022-10-16T10:54:48.081Z,2.20
2022-10-16T11:00:21.947Z,1.55
2022-10-16T11:05:44.300Z,2.40
2022-10-16T11:10:52.379Z,3.40
2022-10-16T11:15:57.927Z,2.05
2022-10-16T11:21:06.679Z,0.47
2022-10-16T11:26:17.220Z,1.95
2022-10-16T11:31:33.817Z,1.40
2022-10-16T11:36:49.926Z,1.05
2022-10-16T11:42:02.212Z,1.33
2022-10-16T11:47:58.204Z,2.38
2022-10-16T11:53:03.093Z,6.10
2022-10-16T11:58:09.096Z,4.47
2022-10-16T12:03:35.734Z,3.53
2022-10-16T12:08:37.951Z,4.32
2022-10-16T12:13:42.098Z,4.97
2022-10-16T12:18:46.062Z,4.18
2022-10-16T12:23:53.646Z,3.53
2022-10-16T12:28:56.594Z,3.00
2022-10-16T12:34:01.956Z,3.13
2022-10-16T12:39:04.050Z,2.38
2022-10-16T12:44:05.565Z,2.00
2022-10-16T12:49:13.015Z,1.50
2022-10-16T12:54:42.690Z,1.85
2022-10-16T13:00:02.731Z,2.15
2022-10-16T13:05:19.625Z,1.55
2022-10-16T13:15:48.318Z,1.00
2022-10-16T13:21:05.164Z,1.05
2022-10-16T13:26:32.195Z,0.88
2022-10-16T13:31:35.112Z,0.63
2022-10-16T13:36:48.618Z,0.52
2022-10-16T13:42:06.450Z,2.17
2022-10-16T13:47:30.949Z,2.63
2022-10-16T13:52:33.270Z,0.82
2022-10-16T13:57:34.632Z,1.65
2022-10-16T14:02:40.121Z,1.25
2022-10-16T14:07:42.970Z,1.35
2022-10-16T14:12:44.480Z,2.25
2022-10-16T14:17:51.235Z,1.00
2022-10-16T14:28:15.622Z,1.60
2022-10-16T14:33:22.791Z,2.40
2022-10-16T14:38:24.258Z,3.80
2022-10-16T14:43:49.987Z,3.47
2022-10-16T14:49:00.991Z,1.30
2022-10-16T14:54:02.876Z,1.40
2022-10-16T14:59:04.367Z,1.40
2022-10-16T15:04:05.846Z,3.22
2022-10-16T15:09:07.308Z,1.13
2022-10-16T15:19:21.021Z,0.68
2022-10-16T15:24:22.376Z,1.63
2022-10-16T15:29:23.726Z,1.85
2022-10-16T15:34:25.130Z,1.10
2022-10-16T15:39:26.476Z,3.83
2022-10-16T15:44:31.094Z,1.00
2022-10-16T15:49:32.455Z,2.25
2022-10-16T15:54:33.822Z,1.00
2022-10-16T15:59:35.178Z,2.97
2022-10-16T16:04:43.940Z,1.95
2022-10-16T16:09:45.995Z,2.15
2022-10-16T16:14:49.953Z,4.07
2022-10-16T16:19:51.976Z,3.92
2022-10-16T16:24:53.331Z,4.15
2022-10-16T16:29:56.110Z,10.85
2022-10-16T16:34:57.554Z,11.82
2022-10-16T16:40:01.910Z,5.47
2022-10-16T16:45:03.403Z,3.92
2022-10-16T16:50:05.954Z,2.42
2022-10-16T16:55:07.776Z,3.10
2022-10-16T17:00:09.795Z,4.18
2022-10-16T17:05:11.168Z,4.25
2022-10-16T17:10:12.559Z,4.75
2022-10-16T17:15:13.988Z,3.72
2022-10-16T17:20:15.550Z,5.07
2022-10-16T17:25:17.975Z,4.85
2022-10-16T17:30:19.321Z,7.78
2022-10-16T17:35:20.674Z,13.95
2022-10-16T17:40:22.223Z,6.50
2022-10-16T17:45:23.693Z,4.10
2022-10-16T17:50:25.153Z,8.40
2022-10-16T17:55:27.352Z,8.90
2022-10-16T18:00:28.984Z,6.50
2022-10-16T18:05:30.359Z,5.18
2022-10-16T18:10:31.742Z,8.30
2022-10-16T18:15:33.084Z,11.93
2022-10-16T18:20:34.451Z,8.98
2022-10-16T18:25:35.841Z,15.35
2022-10-16T18:30:37.191Z,12.75
2022-10-16T18:35:38.516Z,16.73
2022-10-16T18:40:40.286Z,24.92
2022-10-16T18:45:41.719Z,39.50
2022-10-16T18:50:43.254Z,40.10
2022-10-16T18:55:51.926Z,20.30
2022-10-16T19:00:53.306Z,38.22
2022-10-16T19:05:54.876Z,28.65
2022-10-16T19:10:56.381Z,25.45
2022-10-16T19:16:03.678Z,26.35
2022-10-16T19:26:15.706Z,24.23
2022-10-16T19:31:20.318Z,20.55
2022-10-16T19:36:25.413Z,25.23
2022-10-16T19:41:28.421Z,17.17
2022-10-16T19:46:31.768Z,16.90
2022-10-16T19:51:33.192Z,15.18
2022-10-16T19:56:36.059Z,11.02
2022-10-16T20:01:37.484Z,12.57
2022-10-16T20:06:41.075Z,15.27
2022-10-16T20:11:42.499Z,12.23
2022-10-16T20:16:43.892Z,14.70
2022-10-16T20:21:45.233Z,14.38
2022-10-16T20:26:46.629Z,13.27
2022-10-16T20:31:47.963Z,14.25
2022-10-16T20:36:50.700Z,11.95
2022-10-16T20:41:52.092Z,15.05
2022-10-16T20:46:55.626Z,12.15
2022-10-16T20:51:56.986Z,13.02
2022-10-16T20:56:58.400Z,20.25
2022-10-16T21:02:00.120Z,16.30
2022-10-16T21:07:01.636Z,15.27
2022-10-16T21:12:02.995Z,17.00
2022-10-16T21:17:04.518Z,16.63
2022-10-16T21:22:05.888Z,15.60
2022-10-16T21:27:07.822Z,16.63
2022-10-16T21:32:09.151Z,18.88
2022-10-16T21:37:10.496Z,12.05
2022-10-16T21:42:11.862Z,17.25
2022-10-16T21:47:13.192Z,9.85
2022-10-16T21:52:14.576Z,11.32
2022-10-16T21:57:15.991Z,12.30
2022-10-16T22:02:17.376Z,13.30
2022-10-16T22:07:18.922Z,12.70
2022-10-16T22:12:20.916Z,12.20
2022-10-16T22:17:22.299Z,13.13
2022-10-16T22:22:23.658Z,14.18
2022-10-16T22:27:25.260Z,10.25
2022-10-16T22:32:27.085Z,17.00
2022-10-16T22:37:28.669Z,10.60
2022-10-16T22:42:30.259Z,10.50
2022-10-16T22:47:31.693Z,10.88
2022-10-16T22:52:33.159Z,11.25
2022-10-16T22:57:34.566Z,9.57
2022-10-16T23:02:35.972Z,11.57
2022-10-16T23:07:38.055Z,10.60
2022-10-16T23:12:39.421Z,15.02
2022-10-16T23:17:40.794Z,13.15
2022-10-16T23:22:42.256Z,10.68
2022-10-16T23:27:43.655Z,7.30
2022-10-16T23:32:45.039Z,9.95
2022-10-16T23:37:46.400Z,7.22
2022-10-16T23:42:47.798Z,8.60
2022-10-16T23:47:49.229Z,8.20
2022-10-16T23:52:50.578Z,8.40
2022-10-16T23:57:51.938Z,9.40
